Archival Weather

Snohomish County (Paine Fld)

Everett, Washington (KPAE)

Report from: Saturday, November 18, 2023 5:53 AM PST
Current time: Friday, June 21, 2024 12:09 AM PDT

Current weather – Weather history – Daily summaries
Weather forecast

Temperature2.8°C (37.0°F)
Dew point-1.1°C (30.0°F)
Winds Calm
Visibility10 mi. (16.1 km)
Clouds Sky clear
Altimeter29.79 in.Hg (1009 mB)
Relative humidity75 %
Density altitude-1,260 ft. (-384 m)
Sea-level pressure100.9 kPa (1009 mB, 29.80 in.Hg)
Remarks Fully automated report
Automated weather observing station with precipitation discriminator
Flight conditions Visual Meteorological Conditions
Raw dataKPAE 181353Z AUTO 00000KT 10SM CLR 03/M01 A2979 RMK AO2 SLP093 T00281011
An error has occurred. This application may no longer respond until reloaded. Reload 🗙